Time;durP1;ratioP1;P1;durP2;ratioP2;P2;SDS_P1;SDS_P2;PMS_P1;PMS_P2;Temp;Humidity;BMP_temperature;BMP_pressure;BME280_temperature;BME280_humidity;BME280_pressure;Samples;Min_cycle;Max_cycle;Signal;HPM_P1;HPM_P2
2021/10/05 00:01:47;;;;;;;15.27;13.10;;;;;;;;;;5072560;28;20021;-58
2021/10/05 00:04:38;;;;;;;18.55;13.93;;;;;;;;;;5060062;28;20079;-58
2021/10/05 00:07:14;;;;;;;15.52;12.73;;;;;;;;;;5054560;28;20435;-58
2021/10/05 00:09:49;;;;;;;16.08;13.52;;;;;;;;;;5054453;28;20032;-58
2021/10/05 00:12:16;;;;;;;17.83;13.90;;;;;;;;;;5055382;28;20057;-58
2021/10/05 00:14:50;;;;;;;14.30;12.20;;;;;;;;;;5053994;28;20029;-58
2021/10/05 00:17:41;;;;;;;16.05;12.75;;;;;;;;;;5052971;28;20052;-58
2021/10/05 00:20:23;;;;;;;14.02;11.65;;;;;;;;;;5054207;28;20041;-58
2021/10/05 00:28:55;;;;;;;18.65;14.25;;;;;;;;;;5053678;28;20083;-58
2021/10/05 00:31:28;;;;;;;15.05;12.45;;;;;;;;;;5062464;28;20016;-58
2021/10/05 00:34:26;;;;;;;14.93;13.20;;;;;;;;;;5079304;28;20487;-58
2021/10/05 00:36:58;;;;;;;14.50;12.93;;;;;;;;;;5076565;28;20162;-58
2021/10/05 00:39:40;;;;;;;16.52;13.48;;;;;;;;;;5079417;28;20037;-58
2021/10/05 00:42:23;;;;;;;14.93;13.43;;;;;;;;;;5078084;28;20039;-58
2021/10/05 00:45:15;;;;;;;15.82;14.18;;;;;;;;;;5035744;28;20041;-58
2021/10/05 00:47:47;;;;;;;15.40;13.80;;;;;;;;;;5075564;28;20044;-58
2021/10/05 00:50:26;;;;;;;16.58;14.05;;;;;;;;;;5079138;28;20032;-58
2021/10/05 00:52:59;;;;;;;17.33;14.55;;;;;;;;;;5077736;28;20361;-58
2021/10/05 00:58:47;;;;;;;16.15;13.93;;;;;;;;;;5074882;28;20222;-58
2021/10/05 01:04:33;;;;;;;15.80;13.75;;;;;;;;;;5075473;28;20029;-58
2021/10/05 01:07:06;;;;;;;15.48;12.60;;;;;;;;;;5076923;28;20040;-58
2021/10/05 01:09:39;;;;;;;16.33;13.95;;;;;;;;;;5076961;28;20131;-58
2021/10/05 01:14:57;;;;;;;15.45;13.80;;;;;;;;;;5076633;28;20047;-58
2021/10/05 01:17:42;;;;;;;15.55;13.95;;;;;;;;;;5076690;28;20055;-58
2021/10/05 01:20:41;;;;;;;15.95;13.40;;;;;;;;;;5077200;28;20046;-58
2021/10/05 01:28:56;;;;;;;20.23;13.63;;;;;;;;;;5074063;28;20039;-58
2021/10/05 01:31:36;;;;;;;18.45;14.18;;;;;;;;;;5072441;28;20061;-58
2021/10/05 01:34:14;;;;;;;17.80;14.05;;;;;;;;;;5054123;28;20502;-58
2021/10/05 01:36:41;;;;;;;15.85;13.43;;;;;;;;;;5054947;28;20447;-58
2021/10/05 01:39:25;;;;;;;16.13;14.43;;;;;;;;;;5056931;28;20471;-58
2021/10/05 01:42:09;;;;;;;20.02;13.52;;;;;;;;;;5055618;28;20029;-58
2021/10/05 01:44:52;;;;;;;17.13;14.23;;;;;;;;;;5055926;28;20028;-58
2021/10/05 01:50:49;;;;;;;16.33;13.20;;;;;;;;;;5052471;28;20040;-58
2021/10/05 01:53:24;;;;;;;19.83;13.32;;;;;;;;;;5057773;28;20041;-58
2021/10/05 01:56:10;;;;;;;19.42;14.88;;;;;;;;;;5056357;28;20373;-58
2021/10/05 01:58:41;;;;;;;19.17;14.63;;;;;;;;;;5056712;28;20025;-58
2021/10/05 02:01:17;;;;;;;19.58;15.32;;;;;;;;;;5057410;28;20223;-58
2021/10/05 02:03:58;;;;;;;17.73;13.65;;;;;;;;;;5054982;28;20029;-58
2021/10/05 02:06:53;;;;;;;18.08;14.55;;;;;;;;;;5055965;28;20021;-58
2021/10/05 02:09:31;;;;;;;16.05;14.02;;;;;;;;;;5055641;28;20063;-58
2021/10/05 02:14:57;;;;;;;17.23;14.63;;;;;;;;;;5056648;28;20092;-58
2021/10/05 02:20:08;;;;;;;20.10;14.73;;;;;;;;;;5056302;28;20094;-58
2021/10/05 02:23:00;;;;;;;15.82;13.98;;;;;;;;;;5056501;28;20073;-58
2021/10/05 02:25:26;;;;;;;;;;;;;;;;;;5056351;28;20017;-58
2021/10/05 02:28:07;;;;;;;14.75;12.70;;;;;;;;;;5055934;28;20313;-59
2021/10/05 02:30:59;;;;;;;19.40;14.27;;;;;;;;;;5056237;28;20063;-58
2021/10/05 02:36:27;;;;;;;15.05;12.80;;;;;;;;;;5056027;28;20031;-58
2021/10/05 02:39:09;;;;;;;15.73;12.80;;;;;;;;;;5055007;28;20029;-58
2021/10/05 02:45:17;;;;;;;15.77;12.15;;;;;;;;;;5032471;28;20091;-58
2021/10/05 02:47:54;;;;;;;15.27;11.70;;;;;;;;;;5015313;28;20072;-58
2021/10/05 02:50:46;;;;;;;;;;;;;;;;;;;;;
2021/10/05 02:53:45;;;;;;;12.57;10.50;;;;;;;;;;5053988;28;20104;-58
2021/10/05 02:56:18;;;;;;;18.48;11.02;;;;;;;;;;5071048;28;20056;-58
2021/10/05 02:58:53;;;;;;;16.65;13.02;;;;;;;;;;5054515;28;20037;-58
2021/10/05 03:01:26;;;;;;;13.50;10.85;;;;;;;;;;5058873;28;20033;-58
2021/10/05 03:04:13;;;;;;;16.25;11.20;;;;;;;;;;5055581;28;20709;-58
2021/10/05 03:12:57;;;;;;;13.95;10.80;;;;;;;;;;5055340;28;20481;-58
2021/10/05 03:18:59;;;;;;;;;;;;;;;;;;;;;
2021/10/05 03:21:29;;;;;;;13.98;10.25;;;;;;;;;;5054517;28;20107;-58
2021/10/05 03:26:50;;;;;;;13.43;9.85;;;;;;;;;;5054455;28;20647;-58
2021/10/05 03:29:38;;;;;;;12.70;10.75;;;;;;;;;;5054280;28;20330;-58
2021/10/05 03:32:19;;;;;;;12.48;9.48;;;;;;;;;;5062189;28;20035;-58
2021/10/05 03:35:01;;;;;;;13.55;10.15;;;;;;;;;;5064869;28;20423;-58
2021/10/05 03:37:40;;;;;;;13.70;10.07;;;;;;;;;;5068480;28;20446;-58
2021/10/05 03:40:24;;;;;;;10.52;9.13;;;;;;;;;;5070433;28;20401;-58
2021/10/05 03:42:57;;;;;;;13.18;11.45;;;;;;;;;;5055428;28;20371;-58
2021/10/05 03:45:57;;;;;;;13.48;10.98;;;;;;;;;;5053338;28;20056;-59
2021/10/05 03:48:39;;;;;;;12.75;10.45;;;;;;;;;;5047958;28;20462;-58
2021/10/05 03:51:18;;;;;;;12.55;10.35;;;;;;;;;;5051499;28;20071;-59
2021/10/05 03:54:23;;;;;;;14.07;11.10;;;;;;;;;;5051260;28;20047;-58
2021/10/05 03:56:56;;;;;;;12.18;10.05;;;;;;;;;;5066606;28;20036;-58
2021/10/05 03:59:34;;;;;;;9.98;8.68;;;;;;;;;;5069331;28;20158;-58
2021/10/05 04:02:30;;;;;;;13.73;9.25;;;;;;;;;;5068514;28;20361;-58
2021/10/05 04:05:05;;;;;;;11.80;9.52;;;;;;;;;;5087182;28;20020;-59
2021/10/05 04:07:56;;;;;;;12.43;9.63;;;;;;;;;;5068268;28;20059;-59
2021/10/05 04:10:24;;;;;;;11.02;8.63;;;;;;;;;;5054437;28;20025;-58
2021/10/05 04:13:06;;;;;;;;;;;;;;;;;;;;;
2021/10/05 04:15:38;;;;;;;14.23;9.55;;;;;;;;;;5055248;28;20025;-59
2021/10/05 04:18:29;;;;;;;13.55;10.57;;;;;;;;;;5053376;28;20125;-59
2021/10/05 04:21:14;;;;;;;17.08;11.27;;;;;;;;;;5059360;28;20362;-59
2021/10/05 04:24:03;;;;;;;16.65;11.68;;;;;;;;;;5075002;28;20041;-59
2021/10/05 04:26:48;;;;;;;15.98;10.55;;;;;;;;;;5073670;28;20016;-59
2021/10/05 04:32:54;;;;;;;14.80;10.05;;;;;;;;;;5068535;28;20025;-59
2021/10/05 04:38:50;;;;;;;12.07;9.50;;;;;;;;;;5073364;28;20029;-59
2021/10/05 04:41:25;;;;;;;14.93;9.20;;;;;;;;;;5075287;28;20394;-59
2021/10/05 04:44:07;;;;;;;10.73;8.07;;;;;;;;;;5073813;28;20028;-59
2021/10/05 04:46:49;;;;;;;;;;;;;;;;;;;;;
2021/10/05 04:49:35;;;;;;;10.45;8.02;;;;;;;;;;5072893;28;20048;-59
2021/10/05 04:52:30;;;;;;;13.15;8.73;;;;;;;;;;5078346;28;20036;-59
2021/10/05 04:55:08;;;;;;;13.32;7.82;;;;;;;;;;5075199;28;20497;-59
2021/10/05 04:57:57;;;;;;;11.75;7.65;;;;;;;;;;5074096;28;20355;-59
2021/10/05 05:00:45;;;;;;;8.45;6.97;;;;;;;;;;5056542;28;20091;-59
2021/10/05 05:03:16;;;;;;;9.13;6.88;;;;;;;;;;5052589;28;20037;-59
2021/10/05 05:05:43;;;;;;;9.43;7.05;;;;;;;;;;5055038;28;20098;-59
2021/10/05 05:08:41;;;;;;;8.40;6.80;;;;;;;;;;5054422;28;20059;-59
2021/10/05 05:11:44;;;;;;;;;;;;;;;;;;;;;
2021/10/05 05:14:29;;;;;;;8.32;6.65;;;;;;;;;;5054807;28;20047;-59
2021/10/05 05:20:00;;;;;;;12.15;8.77;;;;;;;;;;5068756;28;20059;-58
2021/10/05 05:22:46;;;;;;;11.60;8.43;;;;;;;;;;5056245;28;20571;-59
2021/10/05 05:25:48;;;;;;;8.88;6.43;;;;;;;;;;5073676;28;20040;-59
2021/10/05 05:28:38;;;;;;;14.55;8.85;;;;;;;;;;5053076;28;20072;-59
2021/10/05 05:31:13;;;;;;;12.20;8.70;;;;;;;;;;5070179;28;20397;-59
2021/10/05 05:33:55;;;;;;;10.48;7.45;;;;;;;;;;5035466;28;20114;-59
2021/10/05 05:36:30;;;;;;;9.57;8.02;;;;;;;;;;5037796;28;20037;-59
2021/10/05 05:41:46;;;;;;;12.48;9.32;;;;;;;;;;5069396;28;20043;-59
2021/10/05 05:44:31;;;;;;;11.43;9.38;;;;;;;;;;5071881;28;20402;-59
2021/10/05 05:50:17;;;;;;;10.70;7.25;;;;;;;;;;5057803;28;20509;-59
2021/10/05 05:52:49;;;;;;;9.88;8.13;;;;;;;;;;5054655;28;20123;-59
2021/10/05 05:55:28;;;;;;;9.18;7.80;;;;;;;;;;5055728;28;20029;-58
2021/10/05 05:58:11;;;;;;;9.63;8.27;;;;;;;;;;5052464;28;20073;-59
2021/10/05 06:00:43;;;;;;;10.40;8.63;;;;;;;;;;5053533;28;20029;-59
2021/10/05 06:03:38;;;;;;;10.32;8.10;;;;;;;;;;5052423;28;20368;-58
2021/10/05 06:06:15;;;;;;;15.40;9.48;;;;;;;;;;5064411;28;20431;-59
2021/10/05 06:09:01;;;;;;;13.07;9.38;;;;;;;;;;5072701;28;20047;-58
2021/10/05 06:12:02;;;;;;;10.95;9.40;;;;;;;;;;5073956;28;20461;-58
2021/10/05 06:17:39;;;;;;;;;;;;;;;;;;;;;
2021/10/05 06:20:17;;;;;;;10.80;8.65;;;;;;;;;;5050820;28;20044;-58
2021/10/05 06:23:07;;;;;;;12.70;9.68;;;;;;;;;;5061144;28;20045;-58
2021/10/05 06:28:43;;;;;;;13.95;10.30;;;;;;;;;;5053909;28;20417;-59
2021/10/05 06:31:17;;;;;;;15.00;11.02;;;;;;;;;;5059715;28;20032;-58
2021/10/05 06:34:16;;;;;;;15.68;11.20;;;;;;;;;;5061430;28;20055;-58
2021/10/05 06:36:42;;;;;;;15.90;12.07;;;;;;;;;;5074950;28;20036;-59
2021/10/05 06:39:41;;;;;;;15.80;11.43;;;;;;;;;;5074169;28;20040;-59
2021/10/05 06:42:36;;;;;;;14.40;11.45;;;;;;;;;;5077342;28;20054;-59
2021/10/05 06:45:28;;;;;;;16.25;10.80;;;;;;;;;;5076279;28;20040;-59
2021/10/05 06:48:15;;;;;;;12.25;9.45;;;;;;;;;;5078751;28;20051;-59
2021/10/05 06:50:51;;;;;;;13.75;10.23;;;;;;;;;;5055917;28;20072;-59
2021/10/05 06:59:21;;;;;;;14.85;9.38;;;;;;;;;;5073144;28;20158;-58
2021/10/05 07:01:56;;;;;;;12.88;9.70;;;;;;;;;;5076185;28;20119;-58
2021/10/05 07:04:40;;;;;;;13.18;9.77;;;;;;;;;;5075527;28;20077;-59
2021/10/05 07:07:38;;;;;;;12.15;10.65;;;;;;;;;;5074868;28;20060;-59
2021/10/05 07:10:30;;;;;;;14.75;10.38;;;;;;;;;;5068024;28;20041;-59
2021/10/05 07:13:03;;;;;;;13.32;10.32;;;;;;;;;;5055778;28;20112;-59
2021/10/05 07:15:43;;;;;;;;;;;;;;;;;;;;;
2021/10/05 07:18:39;;;;;;;17.80;11.20;;;;;;;;;;5060395;28;20119;-58
2021/10/05 07:21:30;;;;;;;11.82;10.50;;;;;;;;;;5075928;28;20123;-58
2021/10/05 07:24:09;;;;;;;13.05;9.85;;;;;;;;;;5075397;28;20036;-58
2021/10/05 07:26:39;;;;;;;14.95;10.52;;;;;;;;;;5075266;28;20121;-58
2021/10/05 07:29:05;;;;;;;14.60;10.75;;;;;;;;;;5064955;28;20417;-58
2021/10/05 07:37:34;;;;;;;17.35;11.20;;;;;;;;;;5063324;28;20064;-58
2021/10/05 07:43:05;;;;;;;14.98;9.18;;;;;;;;;;5074706;28;20036;-59
2021/10/05 07:45:37;;;;;;;14.90;10.40;;;;;;;;;;5074453;28;20032;-59
2021/10/05 07:48:04;;;;;;;18.45;11.95;;;;;;;;;;5070199;28;20072;-58
2021/10/05 07:50:47;;;;;;;12.45;10.45;;;;;;;;;;5055464;28;20048;-58
2021/10/05 07:53:16;;;;;;;14.75;9.85;;;;;;;;;;5055460;28;20039;-59
2021/10/05 07:55:59;;;;;;;11.10;8.32;;;;;;;;;;5055544;28;20382;-59
2021/10/05 08:01:59;;;;;;;12.18;8.25;;;;;;;;;;5075527;28;20046;-59
2021/10/05 08:04:41;;;;;;;11.82;8.10;;;;;;;;;;5073810;28;20023;-59
2021/10/05 08:07:11;;;;;;;12.20;8.70;;;;;;;;;;5073352;28;20024;-59
2021/10/05 08:09:39;;;;;;;9.93;7.55;;;;;;;;;;5073093;28;20028;-59
2021/10/05 08:12:23;;;;;;;;;;;;;;;;;;;;;
2021/10/05 08:17:55;;;;;;;9.45;6.85;;;;;;;;;;5051282;28;20063;-59
2021/10/05 08:20:31;;;;;;;12.63;7.97;;;;;;;;;;5054575;28;20053;-58
2021/10/05 08:25:59;;;;;;;8.57;7.32;;;;;;;;;;5070618;28;20043;-59
2021/10/05 08:28:31;;;;;;;8.07;6.70;;;;;;;;;;5054136;28;20037;-59
2021/10/05 08:31:22;;;;;;;10.65;7.03;;;;;;;;;;5052480;28;20032;-59
2021/10/05 08:34:10;;;;;;;;;;;;;;;;;;;;;
2021/10/05 08:36:37;;;;;;;8.70;6.68;;;;;;;;;;5071286;28;20393;-59
2021/10/05 08:39:10;;;;;;;9.30;6.75;;;;;;;;;;5069167;28;20037;-58
2021/10/05 08:41:43;;;;;;;10.70;7.13;;;;;;;;;;5072047;28;20063;-58
2021/10/05 08:47:41;;;;;;;9.52;6.78;;;;;;;;;;5069512;28;20039;-58
2021/10/05 08:50:17;;;;;;;7.82;6.97;;;;;;;;;;5071068;28;20517;-58
2021/10/05 08:53:05;;;;;;;7.72;6.65;;;;;;;;;;5057842;28;20466;-58
2021/10/05 08:58:56;;;;;;;10.13;5.70;;;;;;;;;;5053825;28;20131;-58
2021/10/05 09:04:48;;;;;;;5.22;4.60;;;;;;;;;;5054916;28;20094;-58
2021/10/05 09:07:22;;;;;;;5.38;4.07;;;;;;;;;;5049833;28;20067;-58
2021/10/05 09:10:14;;;;;;;5.22;3.88;;;;;;;;;;5054718;28;20291;-58
2021/10/05 09:12:59;;;;;;;4.85;3.80;;;;;;;;;;5053308;28;20223;-58
2021/10/05 09:15:57;;;;;;;4.28;3.15;;;;;;;;;;5055701;28;20032;-58
2021/10/05 09:18:42;;;;;;;4.22;3.60;;;;;;;;;;5050492;28;20040;-58
2021/10/05 09:21:26;;;;;;;5.15;3.75;;;;;;;;;;5019910;28;20045;-58
2021/10/05 09:23:57;;;;;;;5.55;3.92;;;;;;;;;;5038811;28;20053;-58
2021/10/05 09:26:54;;;;;;;;;;;;;;;;;;;;;
2021/10/05 09:29:49;;;;;;;4.38;3.45;;;;;;;;;;5065724;28;20334;-58
2021/10/05 09:32:31;;;;;;;6.53;2.92;;;;;;;;;;5065743;28;20160;-58
2021/10/05 09:35:06;;;;;;;7.05;3.42;;;;;;;;;;5062892;28;20076;-58
2021/10/05 09:37:55;;;;;;;3.95;3.38;;;;;;;;;;5068459;28;20025;-59
2021/10/05 09:40:39;;;;;;;4.88;3.85;;;;;;;;;;5057235;28;20021;-58
2021/10/05 09:43:34;;;;;;;4.47;3.38;;;;;;;;;;5057591;28;20029;-58
2021/10/05 09:46:19;;;;;;;5.63;3.95;;;;;;;;;;5057879;28;20097;-58
2021/10/05 09:49:07;;;;;;;5.68;4.35;;;;;;;;;;5056740;28;20095;-58
2021/10/05 09:52:08;;;;;;;;;;;;;;;;;;;;;
2021/10/05 09:54:41;;;;;;;4.78;3.83;;;;;;;;;;5038398;28;20097;-59
2021/10/05 09:57:22;;;;;;;3.65;2.80;;;;;;;;;;5033883;28;20486;-59
2021/10/05 10:00:03;;;;;;;5.25;4.45;;;;;;;;;;5047571;28;20067;-59
2021/10/05 10:02:53;;;;;;;3.70;2.97;;;;;;;;;;5056412;28;20043;-59
2021/10/05 10:05:40;;;;;;;8.27;7.13;;;;;;;;;;5057121;28;20470;-59
2021/10/05 10:11:31;;;;;;;;;;;;;;;;;;;;;
2021/10/05 10:20:28;;;;;;;5.60;4.20;;;;;;;;;;5076271;28;20066;-58
2021/10/05 10:23:06;;;;;;;6.50;3.55;;;;;;;;;;5058795;28;20041;-59
2021/10/05 10:25:35;;;;;;;6.38;3.72;;;;;;;;;;5057135;28;20028;-59
2021/10/05 10:28:29;;;;;;;4.90;3.40;;;;;;;;;;5055908;28;20048;-58
2021/10/05 10:34:16;;;;;;;2.97;2.55;;;;;;;;;;5072366;28;20482;-59
2021/10/05 10:37:06;;;;;;;3.80;3.25;;;;;;;;;;5069786;28;20037;-59
2021/10/05 10:39:52;;;;;;;4.28;3.42;;;;;;;;;;5072733;28;20048;-59
2021/10/05 10:42:39;;;;;;;4.47;3.25;;;;;;;;;;5071817;28;20024;-59
2021/10/05 10:45:18;;;;;;;3.80;2.55;;;;;;;;;;5073212;28;20024;-59
2021/10/05 10:50:38;;;;;;;3.55;2.17;;;;;;;;;;5052632;28;20127;-59
2021/10/05 10:53:16;;;;;;;1.95;1.30;;;;;;;;;;5036221;28;20045;-59
2021/10/05 10:56:23;;;;;;;;;;;;;;;;;;;;;
2021/10/05 10:58:52;;;;;;;2.15;1.10;;;;;;;;;;5051695;28;20258;-58
2021/10/05 11:01:40;;;;;;;2.92;1.20;;;;;;;;;;5052437;28;20055;-58
2021/10/05 11:04:16;;;;;;;2.35;1.35;;;;;;;;;;5073129;28;20036;-58
2021/10/05 11:06:57;;;;;;;2.20;1.23;;;;;;;;;;5068444;28;20028;-59
2021/10/05 11:09:49;;;;;;;1.85;0.93;;;;;;;;;;5072564;28;20036;-59
2021/10/05 11:12:31;;;;;;;2.35;0.85;;;;;;;;;;5071694;28;20025;-59
2021/10/05 11:15:12;;;;;;;3.03;1.38;;;;;;;;;;5072189;28;20024;-59
2021/10/05 11:18:07;;;;;;;1.48;0.95;;;;;;;;;;5071916;28;20070;-59
2021/10/05 11:21:17;;;;;;;2.00;1.40;;;;;;;;;;5072763;28;20036;-59
2021/10/05 11:23:54;;;;;;;;;;;;;;;;;;;;;
2021/10/05 11:26:46;;;;;;;1.95;1.08;;;;;;;;;;5058669;28;20391;-59
2021/10/05 11:29:32;;;;;;;3.22;1.52;;;;;;;;;;5052960;28;20036;-59
2021/10/05 11:32:18;;;;;;;1.75;1.08;;;;;;;;;;5061158;28;20036;-58
2021/10/05 11:34:51;;;;;;;2.03;1.23;;;;;;;;;;5071091;28;20039;-59
2021/10/05 11:37:46;;;;;;;2.10;1.23;;;;;;;;;;5059023;28;20033;-58
2021/10/05 11:40:25;;;;;;;3.05;1.70;;;;;;;;;;5052881;28;20040;-58
2021/10/05 11:43:17;;;;;;;2.58;1.70;;;;;;;;;;5054212;28;20029;-58
2021/10/05 11:45:55;;;;;;;2.95;1.73;;;;;;;;;;5076922;28;20060;-59
2021/10/05 11:48:26;;;;;;;2.85;1.50;;;;;;;;;;5070469;28;20091;-59
2021/10/05 11:51:04;;;;;;;1.90;1.15;;;;;;;;;;5072750;28;20525;-58
2021/10/05 11:53:46;;;;;;;2.55;1.80;;;;;;;;;;5072029;28;20460;-58
2021/10/05 11:56:15;;;;;;;2.72;1.23;;;;;;;;;;5072429;28;20343;-58
2021/10/05 11:59:11;;;;;;;2.60;1.35;;;;;;;;;;5053837;28;20037;-58
2021/10/05 12:02:02;;;;;;;2.00;1.10;;;;;;;;;;5049807;28;20050;-59
2021/10/05 12:04:44;;;;;;;1.77;1.17;;;;;;;;;;5051986;28;20044;-59
2021/10/05 12:07:33;;;;;;;;;;;;;;;;;;;;;
2021/10/05 12:10:12;;;;;;;1.17;0.68;;;;;;;;;;5052035;28;20033;-58
2021/10/05 12:12:54;;;;;;;1.17;0.60;;;;;;;;;;5053205;28;20382;-58
2021/10/05 12:19:08;;;;;;;1.10;0.60;;;;;;;;;;5012986;28;20045;-59
2021/10/05 12:21:53;;;;;;;1.13;0.55;;;;;;;;;;5050957;28;20029;-58
2021/10/05 12:27:37;;;;;;;;;;;;;;;;;;;;;
2021/10/05 12:30:16;;;;;;;1.38;0.40;;;;;;;;;;5055053;28;20021;-58
2021/10/05 12:32:48;;;;;;;1.08;0.60;;;;;;;;;;5066909;28;20446;-59
2021/10/05 12:35:23;;;;;;;2.72;0.63;;;;;;;;;;5055298;28;20036;-59
2021/10/05 12:38:18;;;;;;;1.10;0.60;;;;;;;;;;5054335;28;20078;-58
2021/10/05 12:40:49;;;;;;;1.85;0.60;;;;;;;;;;5055123;28;20110;-58
2021/10/05 12:43:25;;;;;;;1.05;0.60;;;;;;;;;;5055391;28;20391;-58
2021/10/05 12:46:00;;;;;;;1.20;0.63;;;;;;;;;;5062046;28;20033;-59
2021/10/05 12:49:07;;;;;;;;;;;;;;;;;;;;;
2021/10/05 12:51:45;;;;;;;1.40;0.60;;;;;;;;;;5074159;28;20059;-59
2021/10/05 12:54:34;;;;;;;1.02;0.60;;;;;;;;;;5073576;28;20039;-58
2021/10/05 12:57:30;;;;;;;1.45;0.55;;;;;;;;;;5074273;28;20078;-59
2021/10/05 13:00:24;;;;;;;1.60;0.50;;;;;;;;;;5066739;28;20044;-59
2021/10/05 13:03:08;;;;;;;1.48;0.80;;;;;;;;;;5053653;28;20445;-59
2021/10/05 13:05:50;;;;;;;1.60;1.00;;;;;;;;;;5053680;28;20021;-59
2021/10/05 13:08:33;;;;;;;2.30;0.75;;;;;;;;;;5053944;28;20029;-58
2021/10/05 13:11:15;;;;;;;1.60;0.70;;;;;;;;;;5053873;28;20383;-59
2021/10/05 13:13:52;;;;;;;1.02;0.50;;;;;;;;;;5054757;28;20029;-59
2021/10/05 13:16:51;;;;;;;2.47;1.35;;;;;;;;;;5055135;28;20036;-59
2021/10/05 13:19:26;;;;;;;1.17;0.60;;;;;;;;;;5051527;28;20041;-58
2021/10/05 13:22:30;;;;;;;1.23;0.60;;;;;;;;;;5053595;28;20082;-59
2021/10/05 13:27:48;;;;;;;1.10;0.40;;;;;;;;;;5056081;28;20032;-59
2021/10/05 13:30:52;;;;;;;3.45;0.65;;;;;;;;;;5074519;28;20028;-59
2021/10/05 13:33:29;;;;;;;1.00;0.50;;;;;;;;;;5060416;28;20050;-59
2021/10/05 13:36:05;;;;;;;;;;;;;;;;;;;;;
2021/10/05 13:41:33;;;;;;;2.05;0.80;;;;;;;;;;5073065;28;20063;-59
2021/10/05 13:44:13;;;;;;;0.77;0.45;;;;;;;;;;5074354;28;20078;-59
2021/10/05 13:46:43;;;;;;;;;;;;;;;;;;5073820;28;20039;-59
2021/10/05 13:49:24;;;;;;;1.30;0.73;;;;;;;;;;5078371;28;20014;-58
2021/10/05 13:51:59;;;;;;;1.23;0.60;;;;;;;;;;5074428;28;20024;-59
2021/10/05 13:54:31;;;;;;;1.58;0.50;;;;;;;;;;5073742;28;20035;-59
2021/10/05 13:57:31;;;;;;;1.10;0.60;;;;;;;;;;5053166;28;20156;-59
2021/10/05 14:00:00;;;;;;;1.58;0.45;;;;;;;;;;5054358;28;20174;-59
2021/10/05 14:05:30;;;;;;;2.00;1.25;;;;;;;;;;5052140;28;20510;-59
2021/10/05 14:08:14;;;;;;;1.25;0.50;;;;;;;;;;5051492;28;20025;-59
2021/10/05 14:10:50;;;;;;;0.45;0.25;;;;;;;;;;5051019;28;20033;-59
2021/10/05 14:13:30;;;;;;;0.47;0.20;;;;;;;;;;5051909;28;20039;-59
2021/10/05 14:16:19;;;;;;;1.83;0.50;;;;;;;;;;5052702;28;20136;-59
2021/10/05 14:19:00;;;;;;;1.10;0.40;;;;;;;;;;5051154;28;20147;-58
2021/10/05 14:21:52;;;;;;;1.02;0.50;;;;;;;;;;5054102;28;20025;-59
2021/10/05 14:24:20;;;;;;;0.93;0.40;;;;;;;;;;5072372;28;20591;-59
2021/10/05 14:26:53;;;;;;;1.05;0.40;;;;;;;;;;5057145;28;20090;-59
2021/10/05 14:29:33;;;;;;;1.27;0.40;;;;;;;;;;5053538;28;20695;-58
2021/10/05 14:32:03;;;;;;;0.77;0.40;;;;;;;;;;5062869;28;20032;-59
2021/10/05 14:34:37;;;;;;;0.55;0.20;;;;;;;;;;5072015;28;20482;-59
2021/10/05 14:37:07;;;;;;;0.50;0.30;;;;;;;;;;5071084;28;20545;-59
2021/10/05 14:39:36;;;;;;;0.50;0.30;;;;;;;;;;5063598;28;20332;-59
2021/10/05 14:42:05;;;;;;;0.80;0.30;;;;;;;;;;5057715;28;20541;-59
2021/10/05 14:47:42;;;;;;;1.23;0.57;;;;;;;;;;5050769;28;20025;-59
2021/10/05 14:50:09;;;;;;;4.25;2.13;;;;;;;;;;5051885;28;20120;-59
2021/10/05 14:52:53;;;;;;;1.60;0.93;;;;;;;;;;5052818;28;20382;-59
2021/10/05 14:55:43;;;;;;;1.20;0.43;;;;;;;;;;5057053;28;20124;-59
2021/10/05 14:58:12;;;;;;;0.52;0.22;;;;;;;;;;5062788;28;20431;-59
2021/10/05 15:00:46;;;;;;;4.18;0.50;;;;;;;;;;5055105;28;20072;-59
2021/10/05 15:03:42;;;;;;;0.50;0.30;;;;;;;;;;5060684;28;20025;-59
2021/10/05 15:06:21;;;;;;;3.85;0.25;;;;;;;;;;5076989;28;20040;-59
2021/10/05 15:09:17;;;;;;;0.93;0.35;;;;;;;;;;5077283;28;20032;-59
2021/10/05 15:12:15;;;;;;;0.77;0.35;;;;;;;;;;5054953;28;20140;-59
2021/10/05 15:14:52;;;;;;;;;;;;;;;;;;;;;
2021/10/05 15:17:28;;;;;;;1.55;0.57;;;;;;;;;;5052125;28;20029;-59
2021/10/05 15:20:15;;;;;;;0.47;0.30;;;;;;;;;;5055067;28;20112;-59
2021/10/05 15:22:44;;;;;;;1.40;0.50;;;;;;;;;;5066822;28;20029;-59
2021/10/05 15:25:56;;;;;;;4.78;0.68;;;;;;;;;;5052638;28;20041;-59
2021/10/05 15:31:15;;;;;;;;;;;;;;;;;;;;;
2021/10/05 15:33:54;;;;;;;1.23;0.60;;;;;;;;;;5050955;28;20122;-59
2021/10/05 15:36:33;;;;;;;1.92;0.63;;;;;;;;;;5051943;28;20075;-59
2021/10/05 15:39:08;;;;;;;1.17;0.35;;;;;;;;;;5057905;28;20040;-57
2021/10/05 15:44:55;;;;;;;1.02;0.70;;;;;;;;;;5069253;28;20025;-59
2021/10/05 15:47:31;;;;;;;2.78;0.43;;;;;;;;;;5048330;28;20033;-59
2021/10/05 15:50:04;;;;;;;0.98;0.40;;;;;;;;;;5060502;28;20032;-58
2021/10/05 15:53:06;;;;;;;3.08;0.85;;;;;;;;;;5066339;28;20490;-59
2021/10/05 15:56:06;;;;;;;0.98;0.60;;;;;;;;;;5050385;28;20040;-59
2021/10/05 15:59:33;;;;;;;;;;;;;;;;;;5065449;28;20032;-59
2021/10/05 16:01:41;;;;;;;0.90;0.45;;;;;;;;;;5076183;28;19914;-59
2021/10/05 16:04:30;;;;;;;3.65;1.10;;;;;;;;;;5052487;28;20111;-59
2021/10/05 16:07:18;;;;;;;1.58;0.73;;;;;;;;;;5060583;28;20060;-59
2021/10/05 16:09:56;;;;;;;1.02;0.50;;;;;;;;;;5061884;28;20106;-59
2021/10/05 16:15:34;;;;;;;1.17;0.60;;;;;;;;;;5050905;28;20045;-59
2021/10/05 16:18:14;;;;;;;;;;;;;;;;;;;;;
2021/10/05 16:20:58;;;;;;;2.35;1.02;;;;;;;;;;5062575;28;20385;-58
2021/10/05 16:23:30;;;;;;;2.13;1.10;;;;;;;;;;5071712;28;20104;-59
2021/10/05 16:26:34;;;;;;;1.38;0.65;;;;;;;;;;5067976;28;20464;-59
2021/10/05 16:29:22;;;;;;;;;;;;;;;;;;;;;
2021/10/05 16:32:10;;;;;;;1.48;0.63;;;;;;;;;;5065274;28;20040;-57
2021/10/05 16:34:45;;;;;;;1.95;1.08;;;;;;;;;;5067462;28;20109;-57
2021/10/05 16:37:19;;;;;;;1.30;0.70;;;;;;;;;;5053888;28;20041;-57
2021/10/05 16:40:00;;;;;;;2.10;0.80;;;;;;;;;;5051478;28;20509;-57
2021/10/05 16:42:41;;;;;;;5.03;0.73;;;;;;;;;;5063363;28;20040;-57
2021/10/05 16:45:17;;;;;;;2.10;1.20;;;;;;;;;;5059744;28;20078;-58
2021/10/05 16:48:01;;;;;;;3.53;1.48;;;;;;;;;;5061385;28;20031;-58
2021/10/05 16:50:46;;;;;;;2.33;1.25;;;;;;;;;;5057780;28;20047;-58
2021/10/05 16:53:20;;;;;;;3.60;2.97;;;;;;;;;;5063841;28;20115;-58
2021/10/05 16:56:12;;;;;;;5.85;3.85;;;;;;;;;;5058008;28;20545;-58
2021/10/05 16:58:49;;;;;;;3.78;2.72;;;;;;;;;;5072156;28;20127;-58
2021/10/05 17:01:35;;;;;;;6.03;3.60;;;;;;;;;;5061455;28;20483;-58
2021/10/05 17:04:21;;;;;;;6.13;4.55;;;;;;;;;;5053616;28;20044;-58
2021/10/05 17:07:08;;;;;;;8.82;4.05;;;;;;;;;;5059400;28;20259;-58
2021/10/05 17:09:43;;;;;;;3.97;2.05;;;;;;;;;;5051292;28;20040;-58
2021/10/05 17:12:17;;;;;;;1.48;0.88;;;;;;;;;;5063430;28;20214;-58
2021/10/05 17:14:46;;;;;;;1.63;1.02;;;;;;;;;;5070278;28;20037;-58
2021/10/05 17:17:37;;;;;;;2.28;1.23;;;;;;;;;;5054858;28;20025;-58
2021/10/05 17:20:12;;;;;;;1.30;0.60;;;;;;;;;;5054868;28;20032;-59
2021/10/05 17:23:00;;;;;;;1.27;0.40;;;;;;;;;;5067326;28;20021;-59
2021/10/05 17:25:32;;;;;;;1.75;0.85;;;;;;;;;;5067195;28;20029;-58
2021/10/05 17:28:01;;;;;;;1.92;0.68;;;;;;;;;;5059856;28;20098;-57
2021/10/05 17:30:38;;;;;;;0.77;0.40;;;;;;;;;;5069613;28;20025;-57
2021/10/05 17:33:08;;;;;;;1.10;0.43;;;;;;;;;;5069338;28;20462;-58
2021/10/05 17:35:50;;;;;;;1.30;0.57;;;;;;;;;;5065213;28;20032;-58
2021/10/05 17:38:39;;;;;;;1.35;0.60;;;;;;;;;;5056753;28;20052;-58
2021/10/05 17:41:14;;;;;;;1.17;0.52;;;;;;;;;;5053947;28;20040;-57
2021/10/05 17:43:43;;;;;;;5.18;0.93;;;;;;;;;;5070084;28;20040;-57
2021/10/05 17:46:36;;;;;;;1.58;0.65;;;;;;;;;;5057066;28;20033;-57
2021/10/05 17:49:06;;;;;;;2.53;0.57;;;;;;;;;;5054310;28;20040;-57
2021/10/05 17:54:43;;;;;;;1.42;0.70;;;;;;;;;;5056667;28;20033;-58
2021/10/05 17:57:25;;;;;;;3.55;0.88;;;;;;;;;;5066903;28;20389;-57
2021/10/05 18:00:01;;;;;;;1.15;0.40;;;;;;;;;;5070669;28;20170;-57
2021/10/05 18:05:24;;;;;;;1.23;0.57;;;;;;;;;;5059352;28;20051;-57
2021/10/05 18:08:00;;;;;;;1.40;0.50;;;;;;;;;;5060756;28;20025;-57
2021/10/05 18:10:38;;;;;;;;;;;;;;;;;;;;;
2021/10/05 18:13:05;;;;;;;1.05;0.47;;;;;;;;;;5052235;28;20041;-58
2021/10/05 18:15:50;;;;;;;1.00;0.30;;;;;;;;;;5055019;28;20036;-58
2021/10/05 18:18:27;;;;;;;2.03;0.57;;;;;;;;;;5057469;28;20041;-58
2021/10/05 18:21:28;;;;;;;0.80;0.40;;;;;;;;;;5053309;28;20086;-58
2021/10/05 18:24:03;;;;;;;1.15;0.43;;;;;;;;;;5057767;28;20078;-57
2021/10/05 18:26:51;;;;;;;2.40;0.73;;;;;;;;;;5069593;28;20040;-57
2021/10/05 18:29:18;;;;;;;0.63;0.30;;;;;;;;;;5056429;28;20124;-56
2021/10/05 18:31:48;;;;;;;0.75;0.50;;;;;;;;;;5068815;28;20074;-57
2021/10/05 18:34:47;;;;;;;4.22;0.50;;;;;;;;;;5065709;28;20040;-59
2021/10/05 18:37:28;;;;;;;1.05;0.52;;;;;;;;;;5052155;28;20037;-58
2021/10/05 18:39:58;;;;;;;1.40;0.50;;;;;;;;;;5052766;28;20064;-59
2021/10/05 18:42:33;;;;;;;3.95;0.95;;;;;;;;;;5050425;28;20020;-58
2021/10/05 18:45:03;;;;;;;1.63;0.80;;;;;;;;;;5051796;28;20127;-59
2021/10/05 18:50:42;;;;;;;0.82;0.52;;;;;;;;;;5049216;28;20037;-58
2021/10/05 18:53:24;;;;;;;0.90;0.47;;;;;;;;;;5018315;28;20071;-57
2021/10/05 18:56:34;;;;;;;1.60;0.50;;;;;;;;;;5055071;28;20104;-57
2021/10/05 18:59:16;;;;;;;1.63;0.50;;;;;;;;;;5052159;28;20137;-57